sensor_id;sensor_type;location;lat;lon;timestamp;P1;durP1;ratioP1;P2;durP2;ratioP2
35518;SDS011;21627;48.216;16.482;2023-04-24T00:00:08;8.10;;;3.55;;
35518;SDS011;21627;48.216;16.482;2023-04-24T00:02:36;5.10;;;3.40;;
35518;SDS011;21627;48.216;16.482;2023-04-24T00:05:05;5.25;;;3.88;;
35518;SDS011;21627;48.216;16.482;2023-04-24T00:07:34;6.70;;;3.75;;
35518;SDS011;21627;48.216;16.482;2023-04-24T00:10:01;5.85;;;3.58;;
35518;SDS011;21627;48.216;16.482;2023-04-24T00:12:28;7.18;;;3.70;;
35518;SDS011;21627;48.216;16.482;2023-04-24T00:14:56;6.38;;;3.55;;
35518;SDS011;21627;48.216;16.482;2023-04-24T00:17:23;4.43;;;3.50;;
35518;SDS011;21627;48.216;16.482;2023-04-24T00:19:50;4.90;;;3.28;;
35518;SDS011;21627;48.216;16.482;2023-04-24T00:22:17;7.50;;;3.85;;
35518;SDS011;21627;48.216;16.482;2023-04-24T00:24:47;4.97;;;3.80;;
35518;SDS011;21627;48.216;16.482;2023-04-24T00:27:14;8.05;;;3.95;;
35518;SDS011;21627;48.216;16.482;2023-04-24T00:29:41;5.07;;;3.65;;
35518;SDS011;21627;48.216;16.482;2023-04-24T00:32:08;7.88;;;3.63;;
35518;SDS011;21627;48.216;16.482;2023-04-24T00:34:36;8.05;;;3.80;;
35518;SDS011;21627;48.216;16.482;2023-04-24T00:37:03;5.03;;;4.05;;
35518;SDS011;21627;48.216;16.482;2023-04-24T00:39:30;4.50;;;3.70;;
35518;SDS011;21627;48.216;16.482;2023-04-24T00:41:58;6.72;;;4.25;;
35518;SDS011;21627;48.216;16.482;2023-04-24T00:44:25;7.13;;;3.97;;
35518;SDS011;21627;48.216;16.482;2023-04-24T00:46:52;7.18;;;4.03;;
35518;SDS011;21627;48.216;16.482;2023-04-24T00:49:21;5.40;;;4.03;;
35518;SDS011;21627;48.216;16.482;2023-04-24T00:51:48;7.65;;;4.35;;
35518;SDS011;21627;48.216;16.482;2023-04-24T00:54:17;6.13;;;4.35;;
35518;SDS011;21627;48.216;16.482;2023-04-24T00:56:45;4.35;;;3.55;;
35518;SDS011;21627;48.216;16.482;2023-04-24T00:59:12;5.13;;;3.72;;
35518;SDS011;21627;48.216;16.482;2023-04-24T01:01:42;8.20;;;4.25;;
35518;SDS011;21627;48.216;16.482;2023-04-24T01:04:12;13.30;;;4.63;;
35518;SDS011;21627;48.216;16.482;2023-04-24T01:06:40;6.75;;;4.32;;
35518;SDS011;21627;48.216;16.482;2023-04-24T01:09:11;10.55;;;4.65;;
35518;SDS011;21627;48.216;16.482;2023-04-24T01:11:40;8.77;;;4.75;;
35518;SDS011;21627;48.216;16.482;2023-04-24T01:14:09;6.65;;;4.85;;
35518;SDS011;21627;48.216;16.482;2023-04-24T01:16:36;4.93;;;4.40;;
35518;SDS011;21627;48.216;16.482;2023-04-24T01:19:05;8.77;;;4.85;;
35518;SDS011;21627;48.216;16.482;2023-04-24T01:21:36;7.35;;;4.90;;
35518;SDS011;21627;48.216;16.482;2023-04-24T01:24:05;10.50;;;5.28;;
35518;SDS011;21627;48.216;16.482;2023-04-24T01:26:33;6.13;;;4.90;;
35518;SDS011;21627;48.216;16.482;2023-04-24T01:29:00;7.65;;;5.15;;
35518;SDS011;21627;48.216;16.482;2023-04-24T01:31:28;18.15;;;5.47;;
35518;SDS011;21627;48.216;16.482;2023-04-24T01:33:56;6.38;;;4.88;;
35518;SDS011;21627;48.216;16.482;2023-04-24T01:36:23;13.80;;;5.43;;
35518;SDS011;21627;48.216;16.482;2023-04-24T01:38:53;9.65;;;5.57;;
35518;SDS011;21627;48.216;16.482;2023-04-24T01:41:21;8.85;;;5.55;;
35518;SDS011;21627;48.216;16.482;2023-04-24T01:43:48;7.10;;;5.25;;
35518;SDS011;21627;48.216;16.482;2023-04-24T01:46:16;6.80;;;5.47;;
35518;SDS011;21627;48.216;16.482;2023-04-24T01:48:44;9.40;;;5.95;;
35518;SDS011;21627;48.216;16.482;2023-04-24T01:51:12;11.77;;;5.80;;
35518;SDS011;21627;48.216;16.482;2023-04-24T01:53:39;9.77;;;5.90;;
35518;SDS011;21627;48.216;16.482;2023-04-24T01:56:06;7.13;;;5.60;;
35518;SDS011;21627;48.216;16.482;2023-04-24T01:58:33;6.88;;;5.38;;
35518;SDS011;21627;48.216;16.482;2023-04-24T02:01:00;9.32;;;5.35;;
35518;SDS011;21627;48.216;16.482;2023-04-24T02:03:28;9.13;;;5.90;;
35518;SDS011;21627;48.216;16.482;2023-04-24T02:05:55;8.40;;;5.43;;
35518;SDS011;21627;48.216;16.482;2023-04-24T02:08:22;8.52;;;6.15;;
35518;SDS011;21627;48.216;16.482;2023-04-24T02:10:50;8.38;;;5.72;;
35518;SDS011;21627;48.216;16.482;2023-04-24T02:13:17;10.23;;;5.43;;
35518;SDS011;21627;48.216;16.482;2023-04-24T02:15:44;7.97;;;5.60;;
35518;SDS011;21627;48.216;16.482;2023-04-24T02:18:11;8.43;;;6.10;;
35518;SDS011;21627;48.216;16.482;2023-04-24T02:20:39;9.57;;;5.90;;
35518;SDS011;21627;48.216;16.482;2023-04-24T02:23:09;8.45;;;5.88;;
35518;SDS011;21627;48.216;16.482;2023-04-24T02:25:36;7.53;;;5.68;;
35518;SDS011;21627;48.216;16.482;2023-04-24T02:28:03;7.10;;;5.85;;
35518;SDS011;21627;48.216;16.482;2023-04-24T02:30:31;13.95;;;7.15;;
35518;SDS011;21627;48.216;16.482;2023-04-24T02:32:58;9.70;;;6.00;;
35518;SDS011;21627;48.216;16.482;2023-04-24T02:35:25;8.27;;;6.63;;
35518;SDS011;21627;48.216;16.482;2023-04-24T02:37:52;9.93;;;6.00;;
35518;SDS011;21627;48.216;16.482;2023-04-24T02:40:19;12.27;;;6.70;;
35518;SDS011;21627;48.216;16.482;2023-04-24T02:42:46;6.50;;;5.80;;
35518;SDS011;21627;48.216;16.482;2023-04-24T02:45:13;11.38;;;6.00;;
35518;SDS011;21627;48.216;16.482;2023-04-24T02:47:41;8.02;;;5.65;;
35518;SDS011;21627;48.216;16.482;2023-04-24T02:50:08;5.90;;;4.95;;
35518;SDS011;21627;48.216;16.482;2023-04-24T02:52:35;8.27;;;5.13;;
35518;SDS011;21627;48.216;16.482;2023-04-24T02:55:02;9.30;;;4.53;;
35518;SDS011;21627;48.216;16.482;2023-04-24T02:57:30;6.53;;;3.90;;
35518;SDS011;21627;48.216;16.482;2023-04-24T02:59:57;7.38;;;4.22;;
35518;SDS011;21627;48.216;16.482;2023-04-24T03:02:24;5.15;;;4.13;;
35518;SDS011;21627;48.216;16.482;2023-04-24T03:04:52;5.90;;;4.20;;
35518;SDS011;21627;48.216;16.482;2023-04-24T03:07:19;5.50;;;4.22;;
35518;SDS011;21627;48.216;16.482;2023-04-24T03:09:47;6.47;;;3.88;;
35518;SDS011;21627;48.216;16.482;2023-04-24T03:12:14;4.07;;;3.45;;
35518;SDS011;21627;48.216;16.482;2023-04-24T03:14:43;5.63;;;3.67;;
35518;SDS011;21627;48.216;16.482;2023-04-24T03:17:10;4.65;;;3.22;;
35518;SDS011;21627;48.216;16.482;2023-04-24T03:19:37;5.68;;;3.90;;
35518;SDS011;21627;48.216;16.482;2023-04-24T03:22:05;5.18;;;3.67;;
35518;SDS011;21627;48.216;16.482;2023-04-24T03:24:32;6.57;;;3.40;;
35518;SDS011;21627;48.216;16.482;2023-04-24T03:26:59;4.40;;;3.20;;
35518;SDS011;21627;48.216;16.482;2023-04-24T03:29:27;4.60;;;3.10;;
35518;SDS011;21627;48.216;16.482;2023-04-24T03:31:55;5.85;;;3.22;;
35518;SDS011;21627;48.216;16.482;2023-04-24T03:34:22;5.78;;;3.60;;
35518;SDS011;21627;48.216;16.482;2023-04-24T03:36:50;5.13;;;3.13;;
35518;SDS011;21627;48.216;16.482;2023-04-24T03:39:17;6.75;;;3.28;;
35518;SDS011;21627;48.216;16.482;2023-04-24T03:41:44;4.97;;;3.35;;
35518;SDS011;21627;48.216;16.482;2023-04-24T03:44:11;3.83;;;3.33;;
35518;SDS011;21627;48.216;16.482;2023-04-24T03:46:38;4.53;;;3.40;;
35518;SDS011;21627;48.216;16.482;2023-04-24T03:49:05;4.63;;;3.17;;
35518;SDS011;21627;48.216;16.482;2023-04-24T03:51:32;4.40;;;3.38;;
35518;SDS011;21627;48.216;16.482;2023-04-24T03:54:00;7.00;;;3.83;;
35518;SDS011;21627;48.216;16.482;2023-04-24T03:56:27;4.90;;;3.40;;
35518;SDS011;21627;48.216;16.482;2023-04-24T03:58:54;4.57;;;3.10;;
35518;SDS011;21627;48.216;16.482;2023-04-24T04:01:21;4.53;;;3.20;;
35518;SDS011;21627;48.216;16.482;2023-04-24T04:03:49;8.10;;;3.50;;
35518;SDS011;21627;48.216;16.482;2023-04-24T04:06:16;5.50;;;3.50;;
35518;SDS011;21627;48.216;16.482;2023-04-24T04:08:44;5.97;;;3.63;;
35518;SDS011;21627;48.216;16.482;2023-04-24T04:11:11;4.35;;;3.10;;
35518;SDS011;21627;48.216;16.482;2023-04-24T04:13:38;7.95;;;3.75;;
35518;SDS011;21627;48.216;16.482;2023-04-24T04:16:06;5.10;;;3.47;;
35518;SDS011;21627;48.216;16.482;2023-04-24T04:18:33;4.60;;;3.35;;
35518;SDS011;21627;48.216;16.482;2023-04-24T04:21:00;4.75;;;3.13;;
35518;SDS011;21627;48.216;16.482;2023-04-24T04:23:27;4.32;;;2.80;;
35518;SDS011;21627;48.216;16.482;2023-04-24T04:25:54;5.70;;;3.28;;
35518;SDS011;21627;48.216;16.482;2023-04-24T04:28:22;9.18;;;2.97;;
35518;SDS011;21627;48.216;16.482;2023-04-24T04:30:50;4.72;;;3.15;;
35518;SDS011;21627;48.216;16.482;2023-04-24T04:33:20;4.63;;;2.90;;
35518;SDS011;21627;48.216;16.482;2023-04-24T04:35:48;3.10;;;2.80;;
35518;SDS011;21627;48.216;16.482;2023-04-24T04:38:15;3.55;;;2.65;;
35518;SDS011;21627;48.216;16.482;2023-04-24T04:40:43;3.28;;;2.55;;
35518;SDS011;21627;48.216;16.482;2023-04-24T04:43:11;3.70;;;2.55;;
35518;SDS011;21627;48.216;16.482;2023-04-24T04:45:42;7.70;;;2.60;;
35518;SDS011;21627;48.216;16.482;2023-04-24T04:48:09;6.05;;;3.10;;
35518;SDS011;21627;48.216;16.482;2023-04-24T04:50:39;6.32;;;2.60;;
35518;SDS011;21627;48.216;16.482;2023-04-24T04:53:06;5.65;;;2.70;;
35518;SDS011;21627;48.216;16.482;2023-04-24T04:55:34;4.50;;;2.72;;
35518;SDS011;21627;48.216;16.482;2023-04-24T04:58:01;3.92;;;2.70;;
35518;SDS011;21627;48.216;16.482;2023-04-24T05:00:28;4.93;;;2.50;;
35518;SDS011;21627;48.216;16.482;2023-04-24T05:03:01;4.45;;;2.33;;
35518;SDS011;21627;48.216;16.482;2023-04-24T05:05:45;5.88;;;2.60;;
35518;SDS011;21627;48.216;16.482;2023-04-24T05:08:13;3.63;;;2.67;;
35518;SDS011;21627;48.216;16.482;2023-04-24T05:10:43;4.85;;;2.50;;
35518;SDS011;21627;48.216;16.482;2023-04-24T05:13:10;3.70;;;2.17;;
35518;SDS011;21627;48.216;16.482;2023-04-24T05:15:39;3.63;;;2.45;;
35518;SDS011;21627;48.216;16.482;2023-04-24T05:18:06;2.65;;;1.98;;
35518;SDS011;21627;48.216;16.482;2023-04-24T05:20:34;4.18;;;2.50;;
35518;SDS011;21627;48.216;16.482;2023-04-24T05:23:01;5.22;;;2.10;;
35518;SDS011;21627;48.216;16.482;2023-04-24T05:25:28;2.50;;;1.88;;
35518;SDS011;21627;48.216;16.482;2023-04-24T05:27:58;3.13;;;2.17;;
35518;SDS011;21627;48.216;16.482;2023-04-24T05:30:25;4.03;;;2.20;;
35518;SDS011;21627;48.216;16.482;2023-04-24T05:32:52;2.95;;;2.10;;
35518;SDS011;21627;48.216;16.482;2023-04-24T05:35:19;5.40;;;2.15;;
35518;SDS011;21627;48.216;16.482;2023-04-24T05:37:47;2.40;;;1.75;;
35518;SDS011;21627;48.216;16.482;2023-04-24T05:40:14;3.25;;;1.70;;
35518;SDS011;21627;48.216;16.482;2023-04-24T05:42:41;3.78;;;2.00;;
35518;SDS011;21627;48.216;16.482;2023-04-24T05:45:08;2.72;;;1.95;;
35518;SDS011;21627;48.216;16.482;2023-04-24T05:47:40;4.15;;;1.98;;
35518;SDS011;21627;48.216;16.482;2023-04-24T05:50:08;2.15;;;1.92;;
35518;SDS011;21627;48.216;16.482;2023-04-24T05:52:35;2.60;;;1.77;;
35518;SDS011;21627;48.216;16.482;2023-04-24T05:55:02;2.40;;;1.42;;
35518;SDS011;21627;48.216;16.482;2023-04-24T05:57:31;4.97;;;1.70;;
35518;SDS011;21627;48.216;16.482;2023-04-24T06:00:01;2.78;;;1.65;;
35518;SDS011;21627;48.216;16.482;2023-04-24T06:02:30;4.50;;;1.70;;
35518;SDS011;21627;48.216;16.482;2023-04-24T06:04:59;4.25;;;2.00;;
35518;SDS011;21627;48.216;16.482;2023-04-24T06:07:26;6.88;;;2.78;;
35518;SDS011;21627;48.216;16.482;2023-04-24T06:09:53;2.17;;;1.42;;
35518;SDS011;21627;48.216;16.482;2023-04-24T06:12:20;3.45;;;1.65;;
35518;SDS011;21627;48.216;16.482;2023-04-24T06:14:48;2.00;;;1.40;;
35518;SDS011;21627;48.216;16.482;2023-04-24T06:17:15;7.30;;;1.63;;
35518;SDS011;21627;48.216;16.482;2023-04-24T06:19:43;2.70;;;1.48;;
35518;SDS011;21627;48.216;16.482;2023-04-24T06:22:10;5.47;;;1.58;;
35518;SDS011;21627;48.216;16.482;2023-04-24T06:24:37;6.80;;;1.65;;
35518;SDS011;21627;48.216;16.482;2023-04-24T06:27:06;4.38;;;1.92;;
35518;SDS011;21627;48.216;16.482;2023-04-24T06:29:35;2.50;;;1.45;;
35518;SDS011;21627;48.216;16.482;2023-04-24T06:32:03;1.90;;;1.30;;
35518;SDS011;21627;48.216;16.482;2023-04-24T06:34:31;1.90;;;1.42;;
35518;SDS011;21627;48.216;16.482;2023-04-24T06:37:00;2.78;;;1.40;;
35518;SDS011;21627;48.216;16.482;2023-04-24T06:39:27;3.58;;;1.60;;
35518;SDS011;21627;48.216;16.482;2023-04-24T06:41:54;4.82;;;1.73;;
35518;SDS011;21627;48.216;16.482;2023-04-24T06:44:22;1.17;;;1.08;;
35518;SDS011;21627;48.216;16.482;2023-04-24T06:46:49;2.83;;;1.83;;
35518;SDS011;21627;48.216;16.482;2023-04-24T06:49:16;4.60;;;1.42;;
35518;SDS011;21627;48.216;16.482;2023-04-24T06:51:43;4.65;;;1.30;;
35518;SDS011;21627;48.216;16.482;2023-04-24T06:54:10;1.70;;;1.20;;
35518;SDS011;21627;48.216;16.482;2023-04-24T06:56:37;5.80;;;1.83;;
35518;SDS011;21627;48.216;16.482;2023-04-24T06:59:05;3.60;;;1.40;;
35518;SDS011;21627;48.216;16.482;2023-04-24T07:01:32;2.55;;;1.38;;
35518;SDS011;21627;48.216;16.482;2023-04-24T07:03:59;1.95;;;1.40;;
35518;SDS011;21627;48.216;16.482;2023-04-24T07:06:27;2.47;;;1.40;;
35518;SDS011;21627;48.216;16.482;2023-04-24T07:08:54;4.78;;;1.60;;
35518;SDS011;21627;48.216;16.482;2023-04-24T07:11:22;2.17;;;1.45;;
35518;SDS011;21627;48.216;16.482;2023-04-24T07:13:50;2.78;;;1.60;;
35518;SDS011;21627;48.216;16.482;2023-04-24T07:16:17;4.50;;;1.35;;
35518;SDS011;21627;48.216;16.482;2023-04-24T07:18:44;1.90;;;1.25;;
35518;SDS011;21627;48.216;16.482;2023-04-24T07:21:11;5.18;;;1.45;;
35518;SDS011;21627;48.216;16.482;2023-04-24T07:23:38;4.90;;;1.50;;
35518;SDS011;21627;48.216;16.482;2023-04-24T07:26:07;2.30;;;1.38;;
35518;SDS011;21627;48.216;16.482;2023-04-24T07:28:34;4.32;;;1.48;;
35518;SDS011;21627;48.216;16.482;2023-04-24T07:31:01;3.40;;;1.48;;
35518;SDS011;21627;48.216;16.482;2023-04-24T07:33:29;3.85;;;1.45;;
35518;SDS011;21627;48.216;16.482;2023-04-24T07:35:56;1.60;;;1.20;;
35518;SDS011;21627;48.216;16.482;2023-04-24T07:38:23;2.20;;;1.40;;
35518;SDS011;21627;48.216;16.482;2023-04-24T07:40:52;2.03;;;1.38;;
35518;SDS011;21627;48.216;16.482;2023-04-24T07:43:19;2.40;;;1.30;;
35518;SDS011;21627;48.216;16.482;2023-04-24T07:45:47;1.90;;;1.40;;
35518;SDS011;21627;48.216;16.482;2023-04-24T07:48:15;9.32;;;1.38;;
35518;SDS011;21627;48.216;16.482;2023-04-24T07:50:44;1.70;;;1.10;;
35518;SDS011;21627;48.216;16.482;2023-04-24T07:53:11;4.43;;;1.10;;
35518;SDS011;21627;48.216;16.482;2023-04-24T07:55:38;2.17;;;1.35;;
35518;SDS011;21627;48.216;16.482;2023-04-24T07:58:06;4.55;;;1.58;;
35518;SDS011;21627;48.216;16.482;2023-04-24T08:00:33;2.40;;;1.40;;
35518;SDS011;21627;48.216;16.482;2023-04-24T08:03:00;4.90;;;1.58;;
35518;SDS011;21627;48.216;16.482;2023-04-24T08:05:28;4.22;;;1.40;;
35518;SDS011;21627;48.216;16.482;2023-04-24T08:07:55;5.07;;;1.42;;
35518;SDS011;21627;48.216;16.482;2023-04-24T08:10:23;5.68;;;1.30;;
35518;SDS011;21627;48.216;16.482;2023-04-24T08:12:50;11.38;;;1.35;;
35518;SDS011;21627;48.216;16.482;2023-04-24T08:15:17;2.25;;;1.20;;
35518;SDS011;21627;48.216;16.482;2023-04-24T08:17:44;2.58;;;1.17;;
35518;SDS011;21627;48.216;16.482;2023-04-24T08:20:12;4.30;;;1.38;;
35518;SDS011;21627;48.216;16.482;2023-04-24T08:22:43;5.13;;;1.35;;
35518;SDS011;21627;48.216;16.482;2023-04-24T08:25:10;3.70;;;1.13;;
35518;SDS011;21627;48.216;16.482;2023-04-24T08:27:37;2.13;;;1.45;;
35518;SDS011;21627;48.216;16.482;2023-04-24T08:30:05;1.70;;;1.25;;
35518;SDS011;21627;48.216;16.482;2023-04-24T08:32:33;1.95;;;1.30;;
35518;SDS011;21627;48.216;16.482;2023-04-24T08:35:02;3.63;;;1.33;;
35518;SDS011;21627;48.216;16.482;2023-04-24T08:37:30;3.08;;;1.30;;
35518;SDS011;21627;48.216;16.482;2023-04-24T08:39:57;3.13;;;1.30;;
35518;SDS011;21627;48.216;16.482;2023-04-24T08:42:24;3.95;;;1.23;;
35518;SDS011;21627;48.216;16.482;2023-04-24T08:44:54;1.42;;;1.20;;
35518;SDS011;21627;48.216;16.482;2023-04-24T08:47:22;1.88;;;1.08;;
35518;SDS011;21627;48.216;16.482;2023-04-24T08:49:51;2.38;;;1.10;;
35518;SDS011;21627;48.216;16.482;2023-04-24T08:52:19;1.33;;;0.90;;
35518;SDS011;21627;48.216;16.482;2023-04-24T08:54:48;1.65;;;0.98;;
35518;SDS011;21627;48.216;16.482;2023-04-24T08:57:15;4.20;;;0.85;;
35518;SDS011;21627;48.216;16.482;2023-04-24T08:59:44;1.30;;;0.88;;
35518;SDS011;21627;48.216;16.482;2023-04-24T09:02:13;5.38;;;1.00;;
35518;SDS011;21627;48.216;16.482;2023-04-24T09:04:41;2.00;;;0.90;;
35518;SDS011;21627;48.216;16.482;2023-04-24T09:07:10;3.95;;;0.77;;
35518;SDS011;21627;48.216;16.482;2023-04-24T09:09:40;1.27;;;1.13;;
35518;SDS011;21627;48.216;16.482;2023-04-24T09:12:08;1.83;;;0.93;;
35518;SDS011;21627;48.216;16.482;2023-04-24T09:14:36;1.02;;;0.90;;
35518;SDS011;21627;48.216;16.482;2023-04-24T09:17:08;1.45;;;1.02;;
35518;SDS011;21627;48.216;16.482;2023-04-24T09:19:36;2.42;;;0.80;;
35518;SDS011;21627;48.216;16.482;2023-04-24T09:22:09;2.67;;;1.08;;
35518;SDS011;21627;48.216;16.482;2023-04-24T09:24:37;1.60;;;0.80;;
35518;SDS011;21627;48.216;16.482;2023-04-24T09:27:05;3.05;;;0.82;;
35518;SDS011;21627;48.216;16.482;2023-04-24T09:29:36;0.73;;;0.63;;
35518;SDS011;21627;48.216;16.482;2023-04-24T09:32:22;1.83;;;1.20;;
35518;SDS011;21627;48.216;16.482;2023-04-24T09:37:51;2.70;;;0.82;;
35518;SDS011;21627;48.216;16.482;2023-04-24T09:40:19;3.10;;;0.93;;
35518;SDS011;21627;48.216;16.482;2023-04-24T09:42:55;2.63;;;0.63;;
35518;SDS011;21627;48.216;16.482;2023-04-24T09:45:35;3.60;;;0.75;;
35518;SDS011;21627;48.216;16.482;2023-04-24T09:48:04;0.60;;;0.60;;
35518;SDS011;21627;48.216;16.482;2023-04-24T09:50:35;2.25;;;0.82;;
35518;SDS011;21627;48.216;16.482;2023-04-24T09:53:02;2.92;;;0.70;;
35518;SDS011;21627;48.216;16.482;2023-04-24T09:55:32;3.30;;;0.70;;
35518;SDS011;21627;48.216;16.482;2023-04-24T09:58:00;1.20;;;0.70;;
35518;SDS011;21627;48.216;16.482;2023-04-24T10:00:31;0.73;;;0.52;;
35518;SDS011;21627;48.216;16.482;2023-04-24T10:03:01;2.45;;;0.80;;
35518;SDS011;21627;48.216;16.482;2023-04-24T10:05:30;1.13;;;0.70;;
35518;SDS011;21627;48.216;16.482;2023-04-24T10:08:01;0.90;;;0.70;;
35518;SDS011;21627;48.216;16.482;2023-04-24T10:10:31;0.88;;;0.40;;
35518;SDS011;21627;48.216;16.482;2023-04-24T10:13:00;2.83;;;0.60;;
35518;SDS011;21627;48.216;16.482;2023-04-24T10:15:28;0.70;;;0.60;;
35518;SDS011;21627;48.216;16.482;2023-04-24T10:17:57;0.98;;;0.60;;
35518;SDS011;21627;48.216;16.482;2023-04-24T10:20:26;0.60;;;0.50;;
35518;SDS011;21627;48.216;16.482;2023-04-24T10:22:57;1.08;;;0.47;;
35518;SDS011;21627;48.216;16.482;2023-04-24T10:25:27;0.73;;;0.60;;
35518;SDS011;21627;48.216;16.482;2023-04-24T10:27:59;0.60;;;0.50;;
35518;SDS011;21627;48.216;16.482;2023-04-24T10:30:28;0.95;;;0.65;;
35518;SDS011;21627;48.216;16.482;2023-04-24T10:33:10;0.95;;;0.60;;
35518;SDS011;21627;48.216;16.482;2023-04-24T10:35:41;1.75;;;0.73;;
35518;SDS011;21627;48.216;16.482;2023-04-24T10:38:12;1.38;;;0.50;;
35518;SDS011;21627;48.216;16.482;2023-04-24T10:40:43;2.45;;;0.80;;
35518;SDS011;21627;48.216;16.482;2023-04-24T10:43:10;3.25;;;0.80;;
35518;SDS011;21627;48.216;16.482;2023-04-24T10:46:03;1.80;;;0.80;;
35518;SDS011;21627;48.216;16.482;2023-04-24T10:48:32;0.88;;;0.63;;
35518;SDS011;21627;48.216;16.482;2023-04-24T10:51:00;1.05;;;0.70;;
35518;SDS011;21627;48.216;16.482;2023-04-24T10:53:30;2.17;;;0.90;;
35518;SDS011;21627;48.216;16.482;2023-04-24T10:56:08;2.25;;;0.70;;
35518;SDS011;21627;48.216;16.482;2023-04-24T10:58:43;4.03;;;0.60;;
35518;SDS011;21627;48.216;16.482;2023-04-24T11:01:25;2.15;;;0.88;;
35518;SDS011;21627;48.216;16.482;2023-04-24T11:04:00;2.03;;;0.98;;
35518;SDS011;21627;48.216;16.482;2023-04-24T11:06:30;4.68;;;0.93;;
35518;SDS011;21627;48.216;16.482;2023-04-24T11:09:03;1.08;;;0.60;;
35518;SDS011;21627;48.216;16.482;2023-04-24T11:11:36;0.98;;;0.70;;
35518;SDS011;21627;48.216;16.482;2023-04-24T11:14:10;1.02;;;0.70;;
35518;SDS011;21627;48.216;16.482;2023-04-24T11:16:53;1.38;;;0.73;;
35518;SDS011;21627;48.216;16.482;2023-04-24T11:19:22;0.93;;;0.70;;
35518;SDS011;21627;48.216;16.482;2023-04-24T11:22:04;1.45;;;0.60;;
35518;SDS011;21627;48.216;16.482;2023-04-24T11:27:15;0.80;;;0.60;;
35518;SDS011;21627;48.216;16.482;2023-04-24T11:29:51;1.90;;;0.70;;
35518;SDS011;21627;48.216;16.482;2023-04-24T11:35:13;3.15;;;0.80;;
35518;SDS011;21627;48.216;16.482;2023-04-24T11:37:52;2.42;;;0.60;;
35518;SDS011;21627;48.216;16.482;2023-04-24T11:40:23;1.77;;;0.95;;
35518;SDS011;21627;48.216;16.482;2023-04-24T11:42:52;1.20;;;0.95;;
35518;SDS011;21627;48.216;16.482;2023-04-24T11:45:24;2.75;;;0.77;;
35518;SDS011;21627;48.216;16.482;2023-04-24T11:47:57;2.42;;;1.10;;
35518;SDS011;21627;48.216;16.482;2023-04-24T11:50:26;1.38;;;0.85;;
35518;SDS011;21627;48.216;16.482;2023-04-24T11:52:54;1.42;;;0.70;;
35518;SDS011;21627;48.216;16.482;2023-04-24T11:57:54;2.17;;;1.00;;
35518;SDS011;21627;48.216;16.482;2023-04-24T12:00:25;0.70;;;0.70;;
35518;SDS011;21627;48.216;16.482;2023-04-24T12:03:04;2.47;;;0.90;;
35518;SDS011;21627;48.216;16.482;2023-04-24T12:05:38;1.63;;;0.60;;
35518;SDS011;21627;48.216;16.482;2023-04-24T12:08:06;1.30;;;0.88;;
35518;SDS011;21627;48.216;16.482;2023-04-24T12:10:34;3.08;;;0.77;;
35518;SDS011;21627;48.216;16.482;2023-04-24T12:13:01;1.45;;;0.80;;
35518;SDS011;21627;48.216;16.482;2023-04-24T12:15:29;2.22;;;0.93;;
35518;SDS011;21627;48.216;16.482;2023-04-24T12:17:56;1.08;;;0.75;;
35518;SDS011;21627;48.216;16.482;2023-04-24T12:20:27;1.58;;;0.80;;
35518;SDS011;21627;48.216;16.482;2023-04-24T12:22:59;0.90;;;0.70;;
35518;SDS011;21627;48.216;16.482;2023-04-24T12:25:28;2.95;;;0.68;;
35518;SDS011;21627;48.216;16.482;2023-04-24T12:30:30;0.55;;;0.52;;
35518;SDS011;21627;48.216;16.482;2023-04-24T12:33:05;2.05;;;0.77;;
35518;SDS011;21627;48.216;16.482;2023-04-24T12:35:33;0.82;;;0.70;;
35518;SDS011;21627;48.216;16.482;2023-04-24T12:38:05;1.80;;;0.70;;
35518;SDS011;21627;48.216;16.482;2023-04-24T12:40:34;2.00;;;0.73;;
35518;SDS011;21627;48.216;16.482;2023-04-24T12:43:02;5.50;;;0.98;;
35518;SDS011;21627;48.216;16.482;2023-04-24T12:45:49;0.70;;;0.70;;
35518;SDS011;21627;48.216;16.482;2023-04-24T12:48:16;4.95;;;0.90;;
35518;SDS011;21627;48.216;16.482;2023-04-24T12:50:44;1.55;;;0.70;;
35518;SDS011;21627;48.216;16.482;2023-04-24T12:53:12;1.08;;;0.75;;
35518;SDS011;21627;48.216;16.482;2023-04-24T12:55:40;2.05;;;1.00;;
35518;SDS011;21627;48.216;16.482;2023-04-24T12:58:08;0.98;;;0.65;;
35518;SDS011;21627;48.216;16.482;2023-04-24T13:00:36;2.00;;;0.80;;
35518;SDS011;21627;48.216;16.482;2023-04-24T13:03:04;5.85;;;1.13;;
35518;SDS011;21627;48.216;16.482;2023-04-24T13:05:34;4.13;;;1.00;;
35518;SDS011;21627;48.216;16.482;2023-04-24T13:08:01;2.63;;;1.10;;
35518;SDS011;21627;48.216;16.482;2023-04-24T13:10:28;2.50;;;1.17;;
35518;SDS011;21627;48.216;16.482;2023-04-24T13:12:56;1.10;;;0.90;;
35518;SDS011;21627;48.216;16.482;2023-04-24T13:15:23;4.60;;;0.90;;
35518;SDS011;21627;48.216;16.482;2023-04-24T13:17:51;3.97;;;0.90;;
35518;SDS011;21627;48.216;16.482;2023-04-24T13:20:18;1.73;;;0.70;;
35518;SDS011;21627;48.216;16.482;2023-04-24T13:22:45;2.35;;;1.15;;
35518;SDS011;21627;48.216;16.482;2023-04-24T13:25:13;3.92;;;1.05;;
35518;SDS011;21627;48.216;16.482;2023-04-24T13:27:43;1.27;;;0.80;;
35518;SDS011;21627;48.216;16.482;2023-04-24T13:30:10;1.35;;;1.00;;
35518;SDS011;21627;48.216;16.482;2023-04-24T13:32:38;2.13;;;1.15;;
35518;SDS011;21627;48.216;16.482;2023-04-24T13:35:05;3.08;;;1.00;;
35518;SDS011;21627;48.216;16.482;2023-04-24T13:37:33;2.60;;;1.08;;
35518;SDS011;21627;48.216;16.482;2023-04-24T13:40:00;2.38;;;1.30;;
35518;SDS011;21627;48.216;16.482;2023-04-24T13:42:28;3.28;;;1.30;;
35518;SDS011;21627;48.216;16.482;2023-04-24T13:44:56;2.42;;;1.27;;
35518;SDS011;21627;48.216;16.482;2023-04-24T13:47:23;3.65;;;1.60;;
35518;SDS011;21627;48.216;16.482;2023-04-24T13:49:50;7.50;;;1.40;;
35518;SDS011;21627;48.216;16.482;2023-04-24T13:52:17;2.53;;;1.55;;
35518;SDS011;21627;48.216;16.482;2023-04-24T13:54:44;2.42;;;1.80;;
35518;SDS011;21627;48.216;16.482;2023-04-24T13:57:13;3.42;;;1.52;;
35518;SDS011;21627;48.216;16.482;2023-04-24T13:59:41;2.60;;;1.55;;
35518;SDS011;21627;48.216;16.482;2023-04-24T14:02:08;4.13;;;1.55;;
35518;SDS011;21627;48.216;16.482;2023-04-24T14:04:35;3.58;;;1.45;;
35518;SDS011;21627;48.216;16.482;2023-04-24T14:07:03;2.63;;;1.60;;
35518;SDS011;21627;48.216;16.482;2023-04-24T14:09:30;4.97;;;2.10;;
35518;SDS011;21627;48.216;16.482;2023-04-24T14:11:57;5.55;;;2.10;;
35518;SDS011;21627;48.216;16.482;2023-04-24T14:14:32;5.38;;;1.70;;
35518;SDS011;21627;48.216;16.482;2023-04-24T14:16:59;4.30;;;1.90;;
35518;SDS011;21627;48.216;16.482;2023-04-24T14:19:26;12.75;;;2.65;;
35518;SDS011;21627;48.216;16.482;2023-04-24T14:21:53;6.70;;;2.22;;
35518;SDS011;21627;48.216;16.482;2023-04-24T14:24:23;9.35;;;3.10;;
35518;SDS011;21627;48.216;16.482;2023-04-24T14:26:50;12.27;;;4.10;;
35518;SDS011;21627;48.216;16.482;2023-04-24T14:29:17;5.60;;;3.25;;
35518;SDS011;21627;48.216;16.482;2023-04-24T14:31:45;5.43;;;3.28;;
35518;SDS011;21627;48.216;16.482;2023-04-24T14:34:13;5.25;;;3.78;;
35518;SDS011;21627;48.216;16.482;2023-04-24T14:36:40;12.65;;;5.20;;
35518;SDS011;21627;48.216;16.482;2023-04-24T14:39:08;18.00;;;7.15;;
35518;SDS011;21627;48.216;16.482;2023-04-24T14:41:36;11.05;;;5.88;;
35518;SDS011;21627;48.216;16.482;2023-04-24T14:44:05;10.63;;;5.40;;
35518;SDS011;21627;48.216;16.482;2023-04-24T14:46:32;5.40;;;3.60;;
35518;SDS011;21627;48.216;16.482;2023-04-24T14:49:00;11.45;;;3.55;;
35518;SDS011;21627;48.216;16.482;2023-04-24T14:51:27;5.70;;;3.13;;
35518;SDS011;21627;48.216;16.482;2023-04-24T14:53:55;6.60;;;3.60;;